Time;durP1;ratioP1;P1;durP2;ratioP2;P2;SDS_P1;SDS_P2;PMS_P1;PMS_P2;Temp;Humidity;BMP_temperature;BMP_pressure;BME280_temperature;BME280_humidity;BME280_pressure;Samples;Min_cycle;Max_cycle;Signal;HPM_P1;HPM_P2
2022/05/31 00:04:51;;;;;;;2.50;1.60;;;;;;;19.72;51.37;96714.75;10183019;29;20053;-83
2022/05/31 00:10:12;;;;;;;2.47;1.73;;;;;;;19.72;51.38;96709.34;10166634;29;20059;-83
2022/05/31 00:15:32;;;;;;;4.20;2.00;;;;;;;19.71;51.38;96723.94;10181965;29;20103;-83
2022/05/31 00:20:52;;;;;;;4.70;1.73;;;;;;;19.71;51.46;96723.94;10198174;29;20080;-83
2022/05/31 00:26:11;;;;;;;2.78;1.75;;;;;;;19.69;51.27;96721.56;10198528;29;20052;-83
2022/05/31 00:31:31;;;;;;;3.50;1.63;;;;;;;19.68;51.28;96725.41;10184470;29;20052;-83
2022/05/31 00:36:51;;;;;;;3.70;1.83;;;;;;;19.68;51.51;96732.69;10195626;29;20464;-83
2022/05/31 00:42:21;;;;;;;4.93;1.67;;;;;;;19.66;51.24;96722.22;10178534;29;20112;-82
2022/05/31 00:47:41;;;;;;;2.53;1.70;;;;;;;19.67;51.30;96712.19;10180901;29;20059;-83
2022/05/31 00:53:06;;;;;;;2.17;1.52;;;;;;;19.66;51.31;96710.59;10191926;29;20466;-83
2022/05/31 00:58:34;;;;;;;3.15;1.77;;;;;;;19.65;51.37;96714.44;10179604;29;20056;-83
2022/05/31 01:03:55;;;;;;;2.05;1.38;;;;;;;19.63;51.22;96712.06;10175909;29;20048;-83
2022/05/31 01:09:15;;;;;;;2.40;1.50;;;;;;;19.64;51.35;96704.75;10180117;29;20078;-83
2022/05/31 01:14:38;;;;;;;3.05;1.33;;;;;;;19.63;51.19;96711.28;10188666;29;20074;-83
2022/05/31 01:20:05;;;;;;;2.42;1.38;;;;;;;19.61;51.15;96714.31;10187975;29;20079;-83
2022/05/31 01:26:13;;;;;;;2.30;1.40;;;;;;;19.61;51.14;96702.72;10171512;29;20500;-83
2022/05/31 01:31:55;;;;;;;2.08;1.60;;;;;;;19.61;51.28;96711.59;10171227;29;20108;-83
2022/05/31 01:37:15;;;;;;;2.58;1.50;;;;;;;19.60;51.19;96709.22;10171953;29;20081;-83
2022/05/31 01:42:42;;;;;;;2.17;1.40;;;;;;;19.59;51.13;96696.84;10175193;29;20048;-83
2022/05/31 01:48:05;;;;;;;2.20;1.40;;;;;;;19.58;51.22;96697.94;10172630;29;20052;-83
2022/05/31 01:53:24;;;;;;;2.53;1.50;;;;;;;19.58;51.30;96706.84;10171223;29;20056;-82
2022/05/31 01:58:47;;;;;;;2.15;1.45;;;;;;;19.56;51.08;96709.06;10171980;29;20064;-83
2022/05/31 02:04:07;;;;;;;2.42;1.27;;;;;;;19.57;51.01;96713.38;10163641;29;20075;-83
2022/05/31 02:09:27;;;;;;;3.55;1.50;;;;;;;19.54;51.18;96704.00;10169676;29;20080;-83
2022/05/31 02:14:46;;;;;;;2.10;1.30;;;;;;;19.55;51.03;96702.09;10180407;29;20401;-83
2022/05/31 02:20:06;;;;;;;2.00;1.38;;;;;;;19.54;51.05;96698.59;10171666;29;20064;-83
2022/05/31 02:25:27;;;;;;;2.70;1.13;;;;;;;19.52;50.93;96706.25;10185523;29;20412;-83
2022/05/31 02:30:46;;;;;;;2.00;1.38;;;;;;;19.52;51.14;96705.44;10177438;29;20044;-83
2022/05/31 02:36:06;;;;;;;1.73;1.00;;;;;;;19.51;51.11;96709.28;10182723;29;20048;-83
2022/05/31 02:41:25;;;;;;;2.30;1.33;;;;;;;19.50;51.08;96708.50;10145247;29;20069;-83
2022/05/31 02:46:45;;;;;;;2.05;1.40;;;;;;;19.49;50.82;96715.00;10167481;29;20058;-83
2022/05/31 02:52:06;;;;;;;1.83;1.23;;;;;;;19.50;50.83;96713.06;10184603;29;20056;-83
2022/05/31 02:57:25;;;;;;;1.45;1.20;;;;;;;19.49;50.95;96706.88;10173439;29;20580;-83
2022/05/31 03:03:04;;;;;;;1.60;1.17;;;;;;;19.46;50.92;96718.34;10159006;29;20503;-83
2022/05/31 03:08:42;;;;;;;;;;;;;;;19.46;50.90;96712.94;10185489;29;20048;-83
2022/05/31 03:14:22;;;;;;;1.63;1.13;;;;;;;19.45;50.80;96705.97;10183922;29;19923;-83
2022/05/31 03:19:46;;;;;;;2.08;1.33;;;;;;;19.46;50.84;96696.72;10182960;29;20079;-83
2022/05/31 03:25:17;;;;;;;1.20;1.08;;;;;;;19.44;50.71;96703.56;10170244;29;20059;-83
2022/05/31 03:30:38;;;;;;;1.10;0.93;;;;;;;19.45;50.71;96697.84;10163698;29;20052;-83
2022/05/31 03:35:58;;;;;;;1.50;1.08;;;;;;;19.43;50.80;96700.09;10146308;29;20056;-83
2022/05/31 03:41:26;;;;;;;2.72;1.30;;;;;;;19.43;50.70;96702.00;10168013;29;20059;-83
2022/05/31 03:46:47;;;;;;;1.30;1.02;;;;;;;19.43;50.77;96697.38;10179450;29;20040;-83
2022/05/31 03:52:07;;;;;;;1.80;1.17;;;;;;;19.43;50.55;96705.50;10177931;29;20067;-83
2022/05/31 03:57:33;;;;;;;1.70;1.38;;;;;;;19.44;50.70;96707.06;10159147;29;20091;-83
2022/05/31 04:03:06;;;;;;;1.90;1.10;;;;;;;19.51;50.57;96707.34;10142657;29;20054;-84
2022/05/31 04:08:26;;;;;;;1.15;1.02;;;;;;;19.54;50.55;96704.00;10163022;29;20078;-83
2022/05/31 04:13:46;;;;;;;1.20;1.10;;;;;;;19.57;50.47;96702.56;10164899;29;20052;-83
2022/05/31 04:19:41;;;;;;;2.38;1.33;;;;;;;19.54;48.32;96704.00;10137189;29;20067;-83
2022/05/31 04:25:01;;;;;;;1.33;1.00;;;;;;;19.57;49.20;96718.78;10190843;29;20575;-83
2022/05/31 04:30:43;;;;;;;1.88;1.30;;;;;;;19.64;49.16;96726.34;10184306;29;20431;-83
2022/05/31 04:36:35;;;;;;;2.05;1.20;;;;;;;19.67;49.45;96723.00;10144579;29;20052;-83
2022/05/31 04:41:55;;;;;;;1.30;1.20;;;;;;;19.72;49.47;96720.16;10159222;29;20078;-83
2022/05/31 04:47:16;;;;;;;1.88;1.23;;;;;;;19.75;49.47;96717.56;10156773;29;20049;-83
2022/05/31 04:52:40;;;;;;;1.15;1.05;;;;;;;19.79;49.67;96720.44;10169106;29;20056;-84
2022/05/31 04:57:59;;;;;;;2.28;1.13;;;;;;;19.81;49.65;96715.47;10169583;29;20056;-85
2022/05/31 05:03:19;;;;;;;2.35;1.13;;;;;;;19.83;49.50;96728.69;10173605;29;20420;-84
2022/05/31 05:08:39;;;;;;;2.60;1.20;;;;;;;19.84;49.40;96728.34;10185024;29;20107;-83
2022/05/31 05:13:59;;;;;;;1.42;1.30;;;;;;;19.85;49.40;96724.53;10180891;29;20064;-83
2022/05/31 05:19:37;;;;;;;5.75;2.10;;;;;;;19.86;49.29;96726.13;10168099;29;20059;-83
2022/05/31 05:24:57;;;;;;;5.40;1.85;;;;;;;19.88;49.28;96731.97;10174922;29;20044;-83
2022/05/31 05:30:48;;;;;;;6.13;2.13;;;;;;;19.91;49.23;96727.81;10149792;29;20106;-83
2022/05/31 05:36:12;;;;;;;5.65;2.47;;;;;;;19.93;49.12;96731.81;10182894;29;20063;-83
2022/05/31 05:41:32;;;;;;;6.68;2.47;;;;;;;19.95;49.16;96724.16;10171241;29;20179;-83
2022/05/31 05:47:20;;;;;;;5.47;2.78;;;;;;;19.98;48.90;96728.09;10181025;29;20060;-83
2022/05/31 05:52:40;;;;;;;6.40;2.47;;;;;;;20.01;49.08;96726.66;10184070;29;20416;-83
2022/05/31 05:58:35;;;;;;;8.65;2.72;;;;;;;20.03;48.99;96729.81;10122535;29;20056;-83
2022/05/31 06:04:23;;;;;;;6.07;2.60;;;;;;;20.05;49.08;96722.16;10171004;29;20055;-83
2022/05/31 06:09:47;;;;;;;8.88;2.50;;;;;;;20.07;48.97;96719.91;10167916;29;20040;-83
2022/05/31 06:15:20;;;;;;;7.10;2.60;;;;;;;20.08;49.02;96716.13;10163347;29;20048;-84
2022/05/31 06:20:40;;;;;;;5.75;2.47;;;;;;;20.08;49.07;96722.31;10159006;29;20059;-83
2022/05/31 06:26:00;;;;;;;6.65;2.65;;;;;;;20.10;49.07;96725.47;10168394;29;20052;-83
2022/05/31 06:31:34;;;;;;;7.30;2.70;;;;;;;20.11;49.03;96720.84;10173322;29;20435;-83
2022/05/31 06:37:05;;;;;;;7.15;2.70;;;;;;;20.11;49.18;96732.47;10165418;29;20056;-83
2022/05/31 06:42:25;;;;;;;7.47;2.78;;;;;;;20.12;49.02;96725.94;10180208;29;20052;-84
2022/05/31 06:48:05;;;;;;;6.03;2.38;;;;;;;20.12;48.98;96712.41;10184601;29;20051;-83
2022/05/31 06:59:40;;;;;;;6.07;2.25;;;;;;;20.15;48.88;96716.38;10186051;29;20060;-83
2022/05/31 07:05:01;;;;;;;4.25;2.30;;;;;;;20.15;48.88;96702.88;10173113;29;20238;-83
2022/05/31 07:10:21;;;;;;;5.13;2.53;;;;;;;20.15;48.91;96700.16;10171049;29;20054;-83
2022/05/31 07:16:00;;;;;;;7.30;2.65;;;;;;;20.15;48.74;96700.94;10146764;29;20059;-83
2022/05/31 07:21:38;;;;;;;6.25;2.38;;;;;;;20.17;48.83;96702.50;10172900;29;20052;-83
2022/05/31 07:26:58;;;;;;;3.92;2.20;;;;;;;20.15;49.13;96690.13;10149346;29;20056;-83
2022/05/31 07:32:17;;;;;;;5.13;2.20;;;;;;;20.18;49.02;96699.47;10172040;29;20650;-83
2022/05/31 07:37:37;;;;;;;3.58;1.90;;;;;;;20.15;49.27;96684.72;10161286;29;20059;-83
2022/05/31 07:42:57;;;;;;;6.40;2.00;;;;;;;20.17;49.18;96676.28;10156446;29;20518;-83
2022/05/31 07:48:22;;;;;;;2.97;1.95;;;;;;;20.18;49.32;96677.06;10168915;29;20052;-83
2022/05/31 07:53:42;;;;;;;5.55;2.03;;;;;;;20.18;49.23;96677.84;10170253;29;20055;-83
2022/05/31 07:59:21;;;;;;;3.90;2.00;;;;;;;20.18;49.19;96677.06;10184309;29;20071;-83
2022/05/31 08:04:40;;;;;;;3.70;1.90;;;;;;;20.18;49.33;96672.44;10182384;29;20056;-83
2022/05/31 08:09:59;;;;;;;3.55;1.60;;;;;;;20.19;49.11;96675.91;10151041;29;20075;-83
2022/05/31 08:15:19;;;;;;;3.75;2.13;;;;;;;20.18;49.22;96677.84;10174561;29;20052;-83
2022/05/31 08:20:39;;;;;;;2.95;1.80;;;;;;;20.19;49.27;96674.03;10170805;29;20067;-83
2022/05/31 08:25:59;;;;;;;5.85;2.13;;;;;;;20.19;49.25;96668.63;10170067;29;20060;-83
2022/05/31 08:31:31;;;;;;;3.13;1.90;;;;;;;20.19;49.22;96665.91;10189838;29;20048;-83
2022/05/31 08:36:51;;;;;;;3.88;1.70;;;;;;;20.19;49.21;96659.69;10172537;29;20052;-84
2022/05/31 08:42:14;;;;;;;3.72;1.80;;;;;;;20.18;49.38;96656.22;10190324;29;20052;-83
2022/05/31 08:47:52;;;;;;;5.60;2.00;;;;;;;20.19;49.22;96652.38;10176404;29;20083;-83
2022/05/31 08:53:22;;;;;;;2.53;1.63;;;;;;;20.19;49.34;96649.69;10169261;29;20183;-83
2022/05/31 08:58:47;;;;;;;2.42;1.60;;;;;;;20.19;49.07;96648.88;10193481;29;20517;-83
2022/05/31 09:04:16;;;;;;;3.08;1.60;;;;;;;20.19;49.19;96649.69;10178035;29;20059;-83
2022/05/31 09:09:57;;;;;;;2.53;1.63;;;;;;;20.18;49.26;96642.69;10189177;29;20048;-82
2022/05/31 09:15:18;;;;;;;4.13;1.50;;;;;;;20.20;49.14;96650.47;10190026;29;20052;-82
2022/05/31 09:20:41;;;;;;;3.47;1.88;;;;;;;20.19;49.19;96641.56;10179171;29;20048;-83
2022/05/31 09:26:12;;;;;;;2.42;1.60;;;;;;;20.19;49.22;96638.88;10196395;29;20052;-82
2022/05/31 09:31:58;;;;;;;2.20;1.52;;;;;;;20.19;49.04;96638.88;10180024;29;20048;-82
2022/05/31 09:37:24;;;;;;;2.10;1.45;;;;;;;20.19;49.17;96638.06;10174463;29;20055;-82
2022/05/31 09:43:01;;;;;;;2.33;1.40;;;;;;;20.18;49.01;96628.38;10193653;29;20573;-83
2022/05/31 09:48:21;;;;;;;2.97;1.50;;;;;;;20.19;49.14;96624.53;10176230;29;20056;-82
2022/05/31 09:59:50;;;;;;;3.45;1.40;;;;;;;20.20;49.44;96626.91;10182695;29;20056;-82
2022/05/31 10:05:30;;;;;;;2.85;1.50;;;;;;;20.20;49.47;96615.31;10176492;29;20079;-83
2022/05/31 10:10:50;;;;;;;3.33;1.77;;;;;;;20.19;50.05;96613.72;10188727;29;20488;-83
2022/05/31 10:16:14;;;;;;;2.78;1.88;;;;;;;20.21;50.28;96606.06;10173659;29;20076;-82
2022/05/31 10:21:43;;;;;;;4.47;2.40;;;;;;;20.21;50.86;96601.47;10153004;29;20456;-83
2022/05/31 10:27:14;;;;;;;4.60;2.40;;;;;;;20.21;51.20;96604.16;10191419;29;20432;-82
2022/05/31 10:32:58;;;;;;;3.65;2.15;;;;;;;20.21;52.00;96590.63;10182365;29;20803;-83
2022/05/31 10:38:18;;;;;;;2.85;2.25;;;;;;;20.22;52.03;96592.22;10169598;29;20109;-83
2022/05/31 10:43:45;;;;;;;2.88;1.80;;;;;;;20.23;52.06;96590.28;10179553;29;20059;-83
2022/05/31 10:49:16;;;;;;;2.40;1.83;;;;;;;20.21;52.05;96589.81;10172832;29;20452;-83
2022/05/31 10:55:09;;;;;;;1.77;1.60;;;;;;;20.22;51.85;96592.22;10183308;29;20048;-84
2022/05/31 11:01:12;;;;;;;2.17;1.58;;;;;;;20.20;51.46;96580.94;10182861;29;20056;-84
2022/05/31 11:06:54;;;;;;;2.63;1.50;;;;;;;20.19;50.36;96586.66;10156646;29;20056;-84
2022/05/31 11:12:16;;;;;;;1.95;1.40;;;;;;;20.15;49.89;96564.94;10156847;29;20056;-84
2022/05/31 11:18:05;;;;;;;1.70;1.40;;;;;;;20.14;48.46;96569.53;10160686;29;20551;-84
2022/05/31 11:23:48;;;;;;;1.98;1.05;;;;;;;20.12;47.95;96565.59;10180962;29;20040;-84
2022/05/31 11:29:20;;;;;;;1.50;1.20;;;;;;;20.12;47.21;96549.34;10165177;29;20048;-84
2022/05/31 11:34:51;;;;;;;1.20;1.10;;;;;;;20.11;45.72;96559.41;10168147;29;20049;-84
2022/05/31 11:40:21;;;;;;;1.65;1.27;;;;;;;20.11;46.44;96553.16;10173607;29;20058;-85
2022/05/31 11:45:59;;;;;;;1.20;1.00;;;;;;;20.07;45.97;96557.66;10182867;29;20044;-84
2022/05/31 11:51:27;;;;;;;2.07;1.27;;;;;;;20.06;45.91;96545.28;10168957;29;20052;-84
2022/05/31 11:57:06;;;;;;;1.38;0.88;;;;;;;20.07;44.70;96542.25;10181924;29;20059;-84
2022/05/31 12:02:29;;;;;;;1.23;1.00;;;;;;;20.11;44.21;96542.34;10155675;29;20048;-84
2022/05/31 12:08:09;;;;;;;1.10;1.00;;;;;;;20.12;43.85;96533.13;10169945;29;20052;-84
2022/05/31 12:13:29;;;;;;;1.40;1.08;;;;;;;20.14;43.28;96541.69;10170369;29;20048;-84
2022/05/31 12:19:23;;;;;;;1.23;0.95;;;;;;;20.15;42.21;96532.47;10168084;29;20133;-84
2022/05/31 12:24:48;;;;;;;1.55;0.90;;;;;;;20.17;42.14;96527.53;10170524;29;20104;-84
2022/05/31 12:30:30;;;;;;;1.45;1.05;;;;;;;20.20;41.39;96518.72;10175169;29;20048;-84
2022/05/31 12:35:53;;;;;;;1.50;1.00;;;;;;;20.21;41.68;96505.97;10158594;29;20055;-84
2022/05/31 12:41:40;;;;;;;1.13;0.80;;;;;;;20.21;41.35;96509.50;10180599;29;20427;-84
2022/05/31 12:47:11;;;;;;;1.63;1.08;;;;;;;20.23;41.56;96495.63;10180409;29;20067;-84
2022/05/31 12:58:30;;;;;;;1.23;1.10;;;;;;;20.25;40.66;96487.97;10153568;29;20246;-84
2022/05/31 13:03:49;;;;;;;1.33;0.98;;;;;;;20.26;40.67;96490.31;10155339;29;20066;-84
2022/05/31 13:09:31;;;;;;;0.70;0.70;;;;;;;20.27;40.11;96485.72;10181353;29;20103;-84
2022/05/31 13:20:42;;;;;;;1.23;0.80;;;;;;;20.26;40.03;96481.44;10172289;29;20060;-84
2022/05/31 13:26:05;;;;;;;1.90;0.80;;;;;;;20.25;39.62;96480.66;10180182;29;20055;-84
2022/05/31 13:31:29;;;;;;;1.15;0.90;;;;;;;20.26;39.50;96484.13;10158280;29;20048;-83
2022/05/31 13:36:48;;;;;;;1.25;1.05;;;;;;;20.25;39.72;96475.25;10185836;29;20108;-84
2022/05/31 13:42:36;;;;;;;1.35;1.00;;;;;;;20.24;38.89;96468.25;10188331;29;20044;-84
2022/05/31 13:47:58;;;;;;;1.63;1.00;;;;;;;20.27;38.84;96464.88;10183191;29;20115;-84
2022/05/31 13:53:18;;;;;;;1.00;0.88;;;;;;;20.28;39.30;96463.72;10168551;29;20641;-84
2022/05/31 13:58:39;;;;;;;0.80;0.80;;;;;;;20.27;39.03;96459.47;10182531;29;20052;-84
2022/05/31 14:04:18;;;;;;;1.10;1.00;;;;;;;20.24;38.60;96452.00;10172304;29;20056;-84
2022/05/31 14:09:38;;;;;;;1.05;0.80;;;;;;;20.27;38.85;96459.47;10170193;29;20420;-84
2022/05/31 14:15:00;;;;;;;1.17;0.90;;;;;;;20.29;38.77;96457.22;10182079;29;20519;-84
2022/05/31 14:20:28;;;;;;;0.85;0.80;;;;;;;20.30;38.34;96453.34;10173072;29;20063;-84
2022/05/31 14:25:51;;;;;;;1.47;0.80;;;;;;;20.32;38.46;96455.72;10160154;29;20411;-84
2022/05/31 14:31:10;;;;;;;0.82;0.80;;;;;;;20.34;38.68;96458.88;10186070;29;20052;-84
2022/05/31 14:36:38;;;;;;;1.15;0.90;;;;;;;20.34;38.25;96453.47;10184235;29;20048;-84
2022/05/31 14:41:58;;;;;;;1.02;0.80;;;;;;;20.33;38.26;96436.47;10181791;29;20044;-84
2022/05/31 14:47:21;;;;;;;1.02;0.80;;;;;;;20.33;38.79;96436.47;10157228;29;20056;-85
2022/05/31 14:52:49;;;;;;;1.90;0.90;;;;;;;20.26;39.15;96430.81;10162106;29;20125;-83
2022/05/31 14:58:43;;;;;;;2.85;0.85;;;;;;;20.23;38.37;96419.88;10167968;29;20071;-83
2022/05/31 15:04:11;;;;;;;1.95;0.90;;;;;;;20.23;38.26;96431.50;10166808;29;20049;-84
2022/05/31 15:09:33;;;;;;;2.22;0.88;;;;;;;20.21;38.56;96419.44;10148285;29;20448;-84
2022/05/31 15:20:37;;;;;;;8.55;1.00;;;;;;;20.23;37.45;96422.59;10175711;29;20066;-82
2022/05/31 15:25:59;;;;;;;4.55;1.20;;;;;;;20.21;37.71;96422.94;10185037;29;20071;-82
2022/05/31 15:31:37;;;;;;;7.75;3.47;;;;;;;20.18;37.68;96412.00;10195966;29;20052;-82
2022/05/31 15:36:57;;;;;;;5.55;2.55;;;;;;;20.17;38.54;96405.81;10173096;29;20052;-81
2022/05/31 15:42:18;;;;;;;2.90;2.08;;;;;;;20.12;38.70;96397.91;10161938;29;20048;-82
2022/05/31 15:47:38;;;;;;;4.00;1.70;;;;;;;20.12;39.14;96400.63;10173720;29;20048;-83
2022/05/31 15:52:58;;;;;;;2.03;1.50;;;;;;;20.10;39.29;96397.47;10197934;29;20048;-82
2022/05/31 15:58:17;;;;;;;2.75;1.40;;;;;;;20.07;39.51;96396.22;10193465;29;20088;-82
2022/05/31 16:03:37;;;;;;;4.00;1.70;;;;;;;20.06;40.01;96388.44;10191237;29;20052;-82
2022/05/31 16:08:57;;;;;;;2.58;1.30;;;;;;;20.04;40.34;96386.06;10174455;29;20052;-82
2022/05/31 16:14:19;;;;;;;3.33;1.75;;;;;;;20.03;40.52;96375.59;10186441;29;20058;-82
2022/05/31 16:19:38;;;;;;;4.03;2.00;;;;;;;20.01;40.52;96359.69;10163114;29;20060;-82
2022/05/31 16:25:00;;;;;;;3.35;1.58;;;;;;;20.02;40.74;96360.50;10179712;29;20058;-82
2022/05/31 16:30:21;;;;;;;2.63;1.30;;;;;;;19.99;40.40;96356.53;10198675;29;20056;-82
2022/05/31 16:35:41;;;;;;;1.60;1.27;;;;;;;19.99;40.32;96363.88;10189507;29;20048;-83
2022/05/31 16:41:17;;;;;;;5.72;2.25;;;;;;;19.99;40.28;96369.28;10179696;29;20520;-82
2022/05/31 16:46:37;;;;;;;4.20;1.70;;;;;;;19.98;40.63;96371.22;10200169;29;20058;-82
2022/05/31 16:51:56;;;;;;;2.92;1.40;;;;;;;19.97;40.52;96358.03;10195071;29;20073;-82
2022/05/31 16:57:17;;;;;;;2.92;1.20;;;;;;;19.95;40.36;96364.56;10199579;29;20717;-83
2022/05/31 17:02:36;;;;;;;4.38;1.13;;;;;;;19.94;40.16;96362.97;10176886;29;20103;-83
2022/05/31 17:19:12;;;;;;;1.33;0.80;;;;;;;19.91;41.48;96331.19;10197957;29;20056;-83
2022/05/31 17:24:35;;;;;;;1.55;1.00;;;;;;;19.90;41.15;96343.16;10172190;29;20064;-82
2022/05/31 17:29:54;;;;;;;2.47;1.02;;;;;;;19.89;41.96;96338.84;10178696;29;20045;-83
2022/05/31 17:35:14;;;;;;;2.60;0.95;;;;;;;19.90;42.17;96326.16;10179702;29;20476;-83
2022/05/31 17:40:34;;;;;;;3.00;0.90;;;;;;;19.87;42.62;96335.69;10178219;29;20476;-84
2022/05/31 17:45:54;;;;;;;2.58;0.98;;;;;;;19.84;42.76;96330.19;10157127;29;20079;-82
2022/05/31 17:51:13;;;;;;;3.63;1.27;;;;;;;19.82;43.28;96341.34;10161698;29;20056;-82
2022/05/31 17:56:33;;;;;;;3.00;1.08;;;;;;;19.78;43.47;96343.16;10157143;29;20080;-83
2022/05/31 18:01:52;;;;;;;1.90;1.30;;;;;;;19.77;43.52;96346.19;10159043;29;20048;-87
2022/05/31 18:07:12;;;;;;;2.17;1.00;;;;;;;19.80;43.70;96348.19;10157903;29;20416;-87
2022/05/31 18:12:32;;;;;;;3.88;1.15;;;;;;;19.80;44.16;96345.50;10184798;29;20415;-88
2022/05/31 18:17:52;;;;;;;2.15;1.30;;;;;;;19.79;44.08;96347.41;10168018;29;20052;-89
2022/05/31 18:23:12;;;;;;;2.63;1.33;;;;;;;19.79;44.24;96358.22;10168155;29;20464;-88
2022/05/31 18:34:10;;;;;;;2.67;1.20;;;;;;;19.79;44.67;96385.25;10168559;29;20063;-86
2022/05/31 18:44:56;;;;;;;1.50;1.30;;;;;;;19.78;45.17;96432.34;10162922;29;20063;-84
2022/05/31 18:50:16;;;;;;;2.17;1.13;;;;;;;19.78;45.20;96431.53;10171030;29;20052;-84
2022/05/31 18:55:36;;;;;;;2.47;1.13;;;;;;;19.77;45.22;96440.78;10164839;29;20056;-87
2022/05/31 19:00:57;;;;;;;2.80;1.63;;;;;;;19.77;45.49;96441.56;10184616;29;20415;-85
2022/05/31 19:06:19;;;;;;;1.30;1.20;;;;;;;19.77;45.71;96449.66;10184312;29;20484;-84
2022/05/31 19:11:39;;;;;;;1.73;1.23;;;;;;;19.75;45.89;96444.59;10182747;29;20511;-85
2022/05/31 19:16:58;;;;;;;1.98;1.20;;;;;;;19.78;46.38;96458.56;10163321;29;20111;-83
2022/05/31 19:22:19;;;;;;;2.28;1.23;;;;;;;19.78;46.55;96480.19;10170414;29;20071;-82
2022/05/31 19:27:38;;;;;;;2.75;1.20;;;;;;;19.78;46.89;96486.41;10178022;29;20052;-82
2022/05/31 19:33:02;;;;;;;2.53;1.30;;;;;;;19.77;47.42;96474.00;10159849;29;20062;-83
2022/05/31 19:38:26;;;;;;;1.60;1.30;;;;;;;19.78;47.49;96491.81;10178262;29;20500;-82
2022/05/31 19:43:45;;;;;;;2.42;1.48;;;;;;;19.79;47.46;96496.06;10178311;29;20067;-83
2022/05/31 19:49:05;;;;;;;1.30;1.10;;;;;;;19.79;47.73;96509.59;10195536;29;20062;-82
2022/05/31 19:54:28;;;;;;;2.20;1.30;;;;;;;19.79;47.80;96495.28;10154003;29;20056;-82
2022/05/31 19:59:48;;;;;;;2.30;1.33;;;;;;;19.80;48.20;96488.75;10160412;29;20084;-84
2022/05/31 20:05:08;;;;;;;2.80;1.33;;;;;;;19.84;48.23;96500.50;10163473;29;20060;-83
2022/05/31 20:10:29;;;;;;;2.67;1.13;;;;;;;19.87;48.60;96489.00;10167648;29;20044;-83
2022/05/31 20:15:49;;;;;;;1.67;1.20;;;;;;;19.90;48.83;96486.44;10153655;29;20056;-83
2022/05/31 20:21:10;;;;;;;1.40;1.15;;;;;;;19.90;48.97;96499.16;10178966;29;20052;-83
2022/05/31 20:26:39;;;;;;;1.58;1.25;;;;;;;19.91;48.97;96506.91;10179617;29;20136;-83
2022/05/31 20:31:59;;;;;;;2.42;1.20;;;;;;;19.91;49.29;96519.66;10159479;29;20064;-84
2022/05/31 20:37:20;;;;;;;2.15;1.10;;;;;;;19.91;49.01;96550.16;10175404;29;20128;-84
2022/05/31 20:42:43;;;;;;;2.13;1.35;;;;;;;19.92;49.19;96557.19;10147634;29;20056;-82
2022/05/31 20:48:04;;;;;;;2.33;1.40;;;;;;;19.93;49.06;96569.59;10153565;29;20053;-83
2022/05/31 20:53:26;;;;;;;2.08;1.35;;;;;;;19.92;48.98;96572.63;10158756;29;20052;-83
2022/05/31 20:58:45;;;;;;;1.65;1.13;;;;;;;19.91;49.14;96592.66;10164361;29;20377;-83
2022/05/31 21:04:04;;;;;;;3.00;1.10;;;;;;;19.92;49.18;96581.50;10158961;29;20056;-83
2022/05/31 21:09:26;;;;;;;1.60;1.20;;;;;;;19.92;49.29;96583.44;10163210;29;20072;-83
2022/05/31 21:14:46;;;;;;;1.60;1.33;;;;;;;19.92;49.25;96597.72;10160526;29;20055;-83
2022/05/31 21:20:06;;;;;;;1.52;1.02;;;;;;;19.91;49.29;96571.81;10150944;29;20063;-83
2022/05/31 21:25:32;;;;;;;2.53;1.33;;;;;;;19.92;49.19;96578.81;10158694;29;20417;-83
2022/05/31 21:30:53;;;;;;;2.08;1.10;;;;;;;19.90;49.25;96581.06;10171767;29;20048;-83
2022/05/31 21:36:13;;;;;;;1.92;1.27;;;;;;;19.88;49.25;96579.81;10164721;29;20056;-83
2022/05/31 21:41:33;;;;;;;1.50;1.10;;;;;;;19.85;49.25;96569.66;10152017;29;20056;-83
2022/05/31 21:46:53;;;;;;;3.00;1.10;;;;;;;19.83;49.10;96563.78;10163604;29;20056;-83
2022/05/31 21:52:13;;;;;;;1.75;1.17;;;;;;;19.83;49.33;96547.56;10151372;29;20057;-83
2022/05/31 21:57:39;;;;;;;1.48;1.15;;;;;;;19.81;49.24;96550.59;10163548;29;20056;-83
2022/05/31 22:02:58;;;;;;;1.80;1.20;;;;;;;19.80;49.41;96554.44;10162860;29;20056;-83
2022/05/31 22:08:18;;;;;;;1.25;1.15;;;;;;;19.79;49.62;96543.94;10163014;29;20060;-84
2022/05/31 22:13:37;;;;;;;1.70;1.10;;;;;;;19.78;49.54;96537.75;10157336;29;20048;-83
2022/05/31 22:18:57;;;;;;;1.20;1.10;;;;;;;19.77;49.94;96544.28;10163038;29;20055;-83
2022/05/31 22:24:20;;;;;;;2.47;1.17;;;;;;;19.78;49.91;96563.97;10148689;29;20104;-83
2022/05/31 22:29:43;;;;;;;1.40;1.13;;;;;;;19.77;49.93;96575.91;10156392;29;20048;-83
2022/05/31 22:35:04;;;;;;;2.17;1.20;;;;;;;19.75;49.96;96584.34;10185558;29;20587;-83
2022/05/31 22:40:23;;;;;;;1.13;1.00;;;;;;;19.75;50.00;96587.06;10167260;29;20052;-83
2022/05/31 22:45:45;;;;;;;2.40;1.13;;;;;;;19.74;50.07;96578.16;10182022;29;20056;-83
2022/05/31 22:51:04;;;;;;;3.75;0.95;;;;;;;19.74;50.20;96571.97;10170542;29;20048;-83
2022/05/31 22:56:24;;;;;;;1.80;1.10;;;;;;;19.73;50.25;96581.97;10165017;29;20051;-84
2022/05/31 23:01:44;;;;;;;0.80;0.80;;;;;;;19.73;50.34;96570.38;10171301;29;20055;-83
2022/05/31 23:07:05;;;;;;;2.70;1.20;;;;;;;19.73;50.38;96556.88;10183385;29;20056;-83
2022/05/31 23:12:25;;;;;;;1.58;0.98;;;;;;;19.73;50.35;96554.16;10165265;29;20411;-83
2022/05/31 23:17:48;;;;;;;1.60;1.00;;;;;;;19.71;50.50;96562.59;10154024;29;20084;-83
2022/05/31 23:28:48;;;;;;;1.08;0.95;;;;;;;19.71;50.48;96569.88;10184376;29;20052;-83
2022/05/31 23:34:09;;;;;;;1.48;1.00;;;;;;;19.71;50.57;96575.28;10184985;29;20071;-83
2022/05/31 23:39:28;;;;;;;2.13;1.10;;;;;;;19.69;50.48;96575.63;10156959;29;20059;-83
2022/05/31 23:44:47;;;;;;;1.15;1.05;;;;;;;19.69;50.78;96585.66;10170386;29;20048;-83
2022/05/31 23:50:07;;;;;;;1.15;0.88;;;;;;;19.68;50.60;96584.06;10184488;29;20056;-83
2022/05/31 23:55:27;;;;;;;1.33;0.90;;;;;;;19.69;50.70;96588.34;10171284;29;20111;-83
